createdAt,value
2022-09-06T20:09:59.597Z,6.13
2022-09-06T20:13:02.659Z,5.38
2022-09-06T20:16:08.228Z,6.63
2022-09-06T20:19:15.029Z,6.23
2022-09-06T20:22:17.916Z,5.78
2022-09-06T20:25:21.629Z,5.15
2022-09-06T20:28:25.338Z,5.03
2022-09-06T20:31:30.587Z,4.77
2022-09-06T20:34:34.474Z,5.43
2022-09-06T20:37:39.770Z,5.28
2022-09-06T20:40:43.557Z,4.95
2022-09-06T20:43:51.361Z,4.55
2022-09-06T20:46:55.539Z,4.93
2022-09-06T20:49:59.702Z,4.57
2022-09-06T20:53:03.348Z,5.07
2022-09-06T20:56:12.197Z,5.10
2022-09-06T20:59:15.301Z,5.10
2022-09-06T21:02:18.525Z,4.47
2022-09-06T21:05:22.905Z,5.03
2022-09-06T21:08:27.827Z,4.75
2022-09-06T21:11:34.116Z,5.10
2022-09-06T21:14:37.513Z,5.05
2022-09-06T21:17:41.230Z,4.77
2022-09-06T21:20:44.957Z,5.13
2022-09-06T21:23:49.340Z,5.25
2022-09-06T21:26:53.659Z,5.47
2022-09-06T21:29:56.798Z,5.68
2022-09-06T21:32:59.841Z,6.00
2022-09-06T21:36:07.784Z,5.90
2022-09-06T21:39:12.981Z,6.13
2022-09-06T21:42:16.320Z,5.40
2022-09-06T21:45:19.372Z,5.43
2022-09-06T21:48:22.598Z,5.20
2022-09-06T21:51:29.979Z,5.93
2022-09-06T21:54:33.076Z,5.72
2022-09-06T21:57:36.081Z,4.85
2022-09-06T22:00:40.863Z,4.72
2022-09-06T22:03:43.904Z,4.90
2022-09-06T22:06:48.220Z,4.97
2022-09-06T22:09:51.216Z,5.10
2022-09-06T22:12:55.181Z,6.00
2022-09-06T22:15:58.291Z,5.68
2022-09-06T22:19:02.376Z,5.13
2022-09-06T22:22:05.783Z,5.93
2022-09-06T22:25:10.111Z,6.22
2022-09-06T22:28:13.773Z,6.18
2022-09-06T22:31:18.058Z,6.00
2022-09-06T22:34:21.959Z,5.47
2022-09-06T22:37:25.814Z,5.67
2022-09-06T22:40:29.353Z,4.88
2022-09-06T22:43:33.325Z,5.97
2022-09-06T22:46:38.846Z,5.30
2022-09-06T22:49:42.611Z,5.13
2022-09-06T22:52:46.370Z,5.83
2022-09-06T22:55:50.493Z,5.22
2022-09-06T22:58:54.282Z,5.07
2022-09-06T23:01:57.315Z,5.43
2022-09-06T23:05:00.476Z,5.37
2022-09-06T23:08:04.804Z,5.37
2022-09-06T23:11:14.063Z,4.80
2022-09-06T23:14:17.551Z,5.25
2022-09-06T23:17:21.435Z,5.07
2022-09-06T23:20:25.065Z,4.90
2022-09-06T23:23:28.742Z,5.90
2022-09-06T23:26:33.699Z,12.45
2022-09-06T23:29:37.526Z,11.40
2022-09-06T23:32:41.573Z,8.15
2022-09-06T23:35:45.273Z,7.53
2022-09-06T23:38:49.422Z,7.50
2022-09-06T23:41:53.340Z,7.88
2022-09-06T23:44:59.630Z,7.22
2022-09-06T23:48:03.145Z,6.80
2022-09-06T23:51:06.560Z,7.93
2022-09-06T23:54:09.601Z,7.47
2022-09-06T23:57:12.608Z,7.20
